Time;durP1;ratioP1;P1;durP2;ratioP2;P2;SDS_P1;SDS_P2;PMS_P1;PMS_P2;Temp;Humidity;BMP_temperature;BMP_pressure;BME280_temperature;BME280_humidity;BME280_pressure;Samples;Min_cycle;Max_cycle;Signal;HPM_P1;HPM_P2
2021/08/05 00:00:13;;;;;;;26.67;13.00;;;;;;;;;;5092773;28;20026;-75
2021/08/05 00:02:39;;;;;;;28.48;13.07;;;;;;;;;;5092995;28;20053;-76
2021/08/05 00:05:04;;;;;;;23.40;13.25;;;;;;;;;;5093027;28;20135;-75
2021/08/05 00:07:29;;;;;;;26.52;13.70;;;;;;;;;;5093018;28;20016;-75
2021/08/05 00:09:55;;;;;;;28.90;14.27;;;;;;;;;;5095585;28;20036;-75
2021/08/05 00:12:20;;;;;;;25.33;12.00;;;;;;;;;;5096351;28;20126;-75
2021/08/05 00:14:45;;;;;;;28.80;13.45;;;;;;;;;;5096712;28;20080;-75
2021/08/05 00:17:11;;;;;;;28.83;12.85;;;;;;;;;;5096612;28;20055;-76
2021/08/05 00:19:36;;;;;;;23.95;13.02;;;;;;;;;;5095001;28;20134;-74
2021/08/05 00:22:02;;;;;;;28.85;12.77;;;;;;;;;;5095417;28;20079;-75
2021/08/05 00:24:27;;;;;;;26.13;12.52;;;;;;;;;;5095695;28;20125;-75
2021/08/05 00:26:52;;;;;;;26.00;13.52;;;;;;;;;;5095980;28;20468;-75
2021/08/05 00:29:19;;;;;;;24.98;12.32;;;;;;;;;;5095899;28;20389;-75
2021/08/05 00:31:44;;;;;;;29.17;13.52;;;;;;;;;;5096336;28;20035;-75
2021/08/05 00:34:10;;;;;;;27.42;12.60;;;;;;;;;;5096220;28;20085;-75
2021/08/05 00:36:35;;;;;;;26.35;12.75;;;;;;;;;;5096120;28;20024;-75
2021/08/05 00:39:00;;;;;;;23.67;12.35;;;;;;;;;;5096185;28;20032;-74
2021/08/05 00:41:25;;;;;;;21.17;11.88;;;;;;;;;;5096164;28;20392;-75
2021/08/05 00:43:51;;;;;;;21.85;12.45;;;;;;;;;;5096199;28;20428;-75
2021/08/05 00:46:16;;;;;;;24.83;11.70;;;;;;;;;;5095913;28;20127;-75
2021/08/05 00:48:41;;;;;;;26.17;12.68;;;;;;;;;;5095770;28;20028;-75
2021/08/05 00:51:07;;;;;;;24.70;14.35;;;;;;;;;;5096002;28;20016;-75
2021/08/05 00:53:32;;;;;;;24.90;13.05;;;;;;;;;;5095828;28;20070;-76
2021/08/05 00:55:57;;;;;;;28.40;12.75;;;;;;;;;;5095932;28;20028;-75
2021/08/05 00:58:23;;;;;;;25.27;13.07;;;;;;;;;;5096074;28;20535;-75
2021/08/05 01:00:50;;;;;;;22.30;12.38;;;;;;;;;;5095894;28;20035;-75
2021/08/05 01:03:26;;;;;;;28.80;11.90;;;;;;;;;;5095691;28;20043;-75
2021/08/05 01:06:04;;;;;;;23.35;12.57;;;;;;;;;;5095645;28;20113;-75
2021/08/05 01:08:29;;;;;;;24.80;11.40;;;;;;;;;;5095530;28;20032;-75
2021/08/05 01:11:15;;;;;;;23.27;13.10;;;;;;;;;;5095602;28;20483;-75
2021/08/05 01:13:45;;;;;;;23.45;12.75;;;;;;;;;;5084518;28;20039;-76
2021/08/05 01:16:13;;;;;;;25.65;13.48;;;;;;;;;;5093200;28;20028;-75
2021/08/05 01:18:39;;;;;;;25.10;12.60;;;;;;;;;;5093780;28;20032;-75
2021/08/05 01:21:08;;;;;;;28.02;12.55;;;;;;;;;;5093551;28;20063;-76
2021/08/05 01:23:42;;;;;;;23.92;12.05;;;;;;;;;;5095256;28;20028;-75
2021/08/05 01:26:21;;;;;;;25.20;12.25;;;;;;;;;;5095059;28;20050;-75
2021/08/05 01:28:47;;;;;;;22.48;12.02;;;;;;;;;;5095143;28;20039;-75
2021/08/05 01:31:12;;;;;;;24.00;13.00;;;;;;;;;;5095177;28;20034;-75
2021/08/05 01:33:38;;;;;;;24.23;13.02;;;;;;;;;;5095203;28;20024;-75
2021/08/05 01:36:05;;;;;;;26.13;12.80;;;;;;;;;;5094928;28;20027;-75
2021/08/05 01:38:31;;;;;;;25.13;13.60;;;;;;;;;;5095049;28;20043;-75
2021/08/05 01:40:58;;;;;;;30.27;14.30;;;;;;;;;;5094993;28;20078;-75
2021/08/05 01:43:23;;;;;;;39.10;13.60;;;;;;;;;;5094926;28;20036;-75
2021/08/05 01:45:49;;;;;;;26.67;12.30;;;;;;;;;;5093490;28;20047;-75
2021/08/05 01:48:15;;;;;;;29.15;12.95;;;;;;;;;;5094777;28;20091;-75
2021/08/05 01:50:44;;;;;;;36.90;14.88;;;;;;;;;;5094781;28;20106;-75
2021/08/05 01:53:09;;;;;;;31.70;13.55;;;;;;;;;;5094775;28;20483;-75
2021/08/05 01:55:34;;;;;;;31.42;13.30;;;;;;;;;;5094361;28;20050;-75
2021/08/05 01:58:00;;;;;;;28.15;13.18;;;;;;;;;;5094621;28;20024;-75
2021/08/05 02:00:25;;;;;;;34.92;14.52;;;;;;;;;;5094493;28;20024;-75
2021/08/05 02:02:53;;;;;;;41.42;15.73;;;;;;;;;;5094451;28;20371;-75
2021/08/05 02:05:28;;;;;;;32.10;15.07;;;;;;;;;;5094092;28;20500;-75
2021/08/05 02:08:04;;;;;;;38.05;15.10;;;;;;;;;;5094536;28;20373;-75
2021/08/05 02:10:37;;;;;;;43.65;16.38;;;;;;;;;;5094400;28;20031;-75
2021/08/05 02:13:05;;;;;;;32.42;14.23;;;;;;;;;;5094441;28;20024;-75
2021/08/05 02:15:33;;;;;;;38.58;15.95;;;;;;;;;;5094239;28;20081;-75
2021/08/05 02:17:59;;;;;;;34.22;14.52;;;;;;;;;;5094324;28;20048;-75
2021/08/05 02:20:25;;;;;;;32.30;14.70;;;;;;;;;;5094042;28;20036;-75
2021/08/05 02:22:51;;;;;;;39.58;15.65;;;;;;;;;;5094189;28;20032;-75
2021/08/05 02:25:17;;;;;;;39.50;15.95;;;;;;;;;;5094029;28;20438;-75
2021/08/05 02:27:43;;;;;;;45.25;17.52;;;;;;;;;;5094092;28;20024;-75
2021/08/05 02:30:08;;;;;;;30.38;13.90;;;;;;;;;;5094103;28;20430;-75
2021/08/05 02:32:35;;;;;;;37.17;15.85;;;;;;;;;;5093481;28;20034;-75
2021/08/05 02:35:02;;;;;;;47.33;17.20;;;;;;;;;;5093914;28;20020;-75
2021/08/05 02:37:27;;;;;;;35.67;15.43;;;;;;;;;;5093982;28;20031;-74
2021/08/05 02:39:53;;;;;;;39.55;16.70;;;;;;;;;;5093958;28;20036;-75
2021/08/05 02:42:18;;;;;;;39.90;15.65;;;;;;;;;;5093904;28;20023;-75
2021/08/05 02:44:44;;;;;;;45.75;16.60;;;;;;;;;;5093790;28;20068;-75
2021/08/05 02:47:10;;;;;;;33.30;14.60;;;;;;;;;;5093887;28;20032;-75
2021/08/05 02:49:35;;;;;;;38.10;15.95;;;;;;;;;;5093736;28;20020;-75
2021/08/05 02:52:01;;;;;;;42.28;16.08;;;;;;;;;;5093480;28;20023;-75
2021/08/05 02:54:26;;;;;;;49.63;17.20;;;;;;;;;;5093762;28;20059;-75
2021/08/05 02:56:52;;;;;;;46.90;17.67;;;;;;;;;;5093326;28;20054;-75
2021/08/05 02:59:17;;;;;;;46.85;16.27;;;;;;;;;;5093591;28;20081;-75
2021/08/05 03:01:42;;;;;;;40.83;16.95;;;;;;;;;;5093369;28;20028;-75
2021/08/05 03:04:11;;;;;;;60.05;18.15;;;;;;;;;;5093613;28;20020;-75
2021/08/05 03:06:36;;;;;;;51.35;18.42;;;;;;;;;;5093430;28;20064;-75
2021/08/05 03:09:02;;;;;;;55.05;17.95;;;;;;;;;;5093697;28;20081;-75
2021/08/05 03:11:27;;;;;;;49.28;17.40;;;;;;;;;;5093411;28;20024;-75
2021/08/05 03:13:53;;;;;;;36.70;16.73;;;;;;;;;;5093598;28;20031;-74
2021/08/05 03:16:18;;;;;;;43.90;18.15;;;;;;;;;;5093429;28;20036;-74
2021/08/05 03:18:44;;;;;;;56.05;18.02;;;;;;;;;;5093460;28;20350;-75
2021/08/05 03:21:09;;;;;;;41.45;17.58;;;;;;;;;;5093177;28;20127;-75
2021/08/05 03:23:34;;;;;;;56.50;20.25;;;;;;;;;;5093593;28;20499;-75
2021/08/05 03:26:00;;;;;;;39.90;18.45;;;;;;;;;;5093631;28;20028;-75
2021/08/05 03:28:25;;;;;;;58.78;20.42;;;;;;;;;;5093078;28;20035;-75
2021/08/05 03:30:50;;;;;;;83.60;24.35;;;;;;;;;;5093364;28;20032;-74
2021/08/05 03:33:16;;;;;;;79.53;23.27;;;;;;;;;;5093428;28;20024;-75
2021/08/05 03:35:41;;;;;;;77.28;22.05;;;;;;;;;;5093181;28;20115;-75
2021/08/05 03:38:06;;;;;;;42.95;16.02;;;;;;;;;;5093423;28;20028;-75
2021/08/05 03:40:32;;;;;;;42.58;16.30;;;;;;;;;;5093175;28;20066;-76
2021/08/05 03:42:57;;;;;;;73.53;21.27;;;;;;;;;;5092942;28;20032;-75
2021/08/05 03:45:22;;;;;;;77.22;23.55;;;;;;;;;;5096655;28;20062;-75
2021/08/05 03:47:47;;;;;;;93.38;24.42;;;;;;;;;;5097115;28;20021;-75
2021/08/05 03:50:13;;;;;;;109.82;26.65;;;;;;;;;;5097238;28;20028;-75
2021/08/05 03:52:38;;;;;;;126.78;28.02;;;;;;;;;;5097288;28;20574;-75
2021/08/05 03:55:04;;;;;;;107.43;27.15;;;;;;;;;;5097259;28;20085;-74
2021/08/05 03:57:29;;;;;;;96.40;25.35;;;;;;;;;;5096880;28;20082;-75
2021/08/05 03:59:55;;;;;;;103.07;26.73;;;;;;;;;;5096858;28;20041;-75
2021/08/05 04:02:20;;;;;;;109.82;27.20;;;;;;;;;;5096956;28;20028;-75
2021/08/05 04:04:45;;;;;;;89.60;28.15;;;;;;;;;;5096739;28;20047;-75
2021/08/05 04:07:10;;;;;;;112.35;28.70;;;;;;;;;;5096924;28;20047;-75
2021/08/05 04:09:36;;;;;;;104.60;28.23;;;;;;;;;;5096727;28;20519;-75
2021/08/05 04:12:01;;;;;;;108.40;27.27;;;;;;;;;;5096434;28;20032;-75
2021/08/05 04:14:26;;;;;;;117.57;28.85;;;;;;;;;;5096435;28;20127;-75
2021/08/05 04:16:52;;;;;;;93.68;27.80;;;;;;;;;;5096703;28;20063;-75
2021/08/05 04:19:17;;;;;;;121.60;29.65;;;;;;;;;;5096572;28;20028;-75
2021/08/05 04:21:42;;;;;;;107.75;27.45;;;;;;;;;;5096142;28;20492;-75
2021/08/05 04:24:07;;;;;;;102.68;27.05;;;;;;;;;;5096482;28;20043;-75
2021/08/05 04:26:33;;;;;;;91.82;27.63;;;;;;;;;;5096653;28;20353;-76
2021/08/05 04:28:58;;;;;;;101.38;27.77;;;;;;;;;;5096384;28;20062;-75
2021/08/05 04:31:23;;;;;;;110.78;28.65;;;;;;;;;;5096385;28;20020;-75
2021/08/05 04:33:49;;;;;;;105.63;27.92;;;;;;;;;;5096299;28;20032;-75
2021/08/05 04:36:14;;;;;;;104.55;27.88;;;;;;;;;;5096220;28;20416;-75
2021/08/05 04:38:39;;;;;;;91.88;27.80;;;;;;;;;;5095725;28;20066;-76
2021/08/05 04:41:04;;;;;;;114.80;28.30;;;;;;;;;;5095493;28;20062;-75
2021/08/05 04:43:30;;;;;;;110.00;28.75;;;;;;;;;;5096051;28;20028;-75
2021/08/05 04:45:55;;;;;;;108.75;27.63;;;;;;;;;;5096050;28;20028;-75
2021/08/05 04:48:20;;;;;;;98.80;26.63;;;;;;;;;;5095979;28;20153;-75
2021/08/05 04:50:45;;;;;;;96.63;26.73;;;;;;;;;;5095871;28;20112;-75
2021/08/05 04:53:16;;;;;;;90.45;24.73;;;;;;;;;;5095945;28;20016;-75
2021/08/05 04:55:41;;;;;;;103.10;27.23;;;;;;;;;;5095761;28;20035;-75
2021/08/05 04:58:07;;;;;;;88.00;24.48;;;;;;;;;;5095814;28;20119;-75
2021/08/05 05:00:39;;;;;;;88.45;25.55;;;;;;;;;;5095772;28;20070;-75
2021/08/05 05:03:05;;;;;;;84.68;24.58;;;;;;;;;;5096089;28;20028;-75
2021/08/05 05:05:30;;;;;;;86.43;24.27;;;;;;;;;;5095889;28;20431;-75
2021/08/05 05:07:56;;;;;;;77.18;23.85;;;;;;;;;;5095699;28;20027;-75
2021/08/05 05:10:22;;;;;;;74.50;22.92;;;;;;;;;;5095598;28;20395;-75
2021/08/05 05:12:48;;;;;;;91.07;24.15;;;;;;;;;;5095155;28;20480;-75
2021/08/05 05:15:14;;;;;;;68.97;21.73;;;;;;;;;;5095214;28;20111;-75
2021/08/05 05:17:40;;;;;;;65.80;22.67;;;;;;;;;;5095382;28;20047;-75
2021/08/05 05:20:05;;;;;;;59.40;20.27;;;;;;;;;;5094024;28;20101;-75
2021/08/05 05:22:31;;;;;;;61.70;20.75;;;;;;;;;;5095341;28;20024;-75
2021/08/05 05:24:56;;;;;;;62.72;20.88;;;;;;;;;;5095159;28;20035;-76
2021/08/05 05:27:22;;;;;;;59.13;20.85;;;;;;;;;;5094942;28;20036;-74
2021/08/05 05:29:47;;;;;;;58.28;19.25;;;;;;;;;;5095116;28;20044;-75
2021/08/05 05:32:13;;;;;;;59.60;20.15;;;;;;;;;;5095193;28;20063;-75
2021/08/05 05:34:38;;;;;;;55.40;20.00;;;;;;;;;;5095086;28;20020;-75
2021/08/05 05:37:04;;;;;;;48.15;17.88;;;;;;;;;;5095021;28;20063;-75
2021/08/05 05:39:29;;;;;;;47.08;17.80;;;;;;;;;;5094708;28;20027;-75
2021/08/05 05:41:54;;;;;;;49.50;18.13;;;;;;;;;;5095002;28;20042;-76
2021/08/05 05:44:19;;;;;;;47.85;17.70;;;;;;;;;;5094807;28;20016;-75
2021/08/05 05:46:45;;;;;;;57.65;18.52;;;;;;;;;;5094912;28;20028;-75
2021/08/05 05:49:10;;;;;;;41.05;16.13;;;;;;;;;;5094634;28;20032;-75
2021/08/05 05:51:36;;;;;;;49.78;15.57;;;;;;;;;;5094794;28;20020;-76
2021/08/05 05:54:01;;;;;;;44.15;16.63;;;;;;;;;;5094780;28;20028;-76
2021/08/05 05:56:26;;;;;;;42.33;16.55;;;;;;;;;;5094746;28;20361;-75
2021/08/05 05:58:51;;;;;;;38.08;15.98;;;;;;;;;;5094791;28;20024;-76
2021/08/05 06:01:17;;;;;;;49.55;17.45;;;;;;;;;;5094563;28;20027;-76
2021/08/05 06:03:42;;;;;;;31.90;14.73;;;;;;;;;;5094594;28;20054;-75
2021/08/05 06:06:07;;;;;;;30.58;13.38;;;;;;;;;;5094087;28;20464;-76
2021/08/05 06:08:32;;;;;;;30.40;13.32;;;;;;;;;;5094339;28;20032;-75
2021/08/05 06:10:58;;;;;;;27.25;12.65;;;;;;;;;;5094762;28;20028;-75
2021/08/05 06:13:23;;;;;;;24.60;12.27;;;;;;;;;;5094035;28;20023;-75
2021/08/05 06:15:48;;;;;;;27.90;13.52;;;;;;;;;;5094102;28;20043;-75
2021/08/05 06:18:14;;;;;;;26.20;12.40;;;;;;;;;;5093998;28;20043;-75
2021/08/05 06:20:39;;;;;;;25.52;13.13;;;;;;;;;;5094301;28;20044;-76
2021/08/05 06:23:08;;;;;;;30.42;12.52;;;;;;;;;;5094140;28;20093;-75
2021/08/05 06:25:34;;;;;;;23.83;12.40;;;;;;;;;;5094242;28;20047;-75
2021/08/05 06:27:59;;;;;;;25.33;12.43;;;;;;;;;;5093984;28;20016;-76
2021/08/05 06:30:24;;;;;;;23.15;12.35;;;;;;;;;;5093737;28;20081;-75
2021/08/05 06:32:51;;;;;;;28.60;12.63;;;;;;;;;;5094017;28;20034;-75
2021/08/05 06:35:17;;;;;;;26.48;12.57;;;;;;;;;;5093837;28;20024;-76
2021/08/05 06:37:43;;;;;;;22.75;11.75;;;;;;;;;;5093926;28;20027;-76
2021/08/05 06:40:08;;;;;;;22.85;12.57;;;;;;;;;;5093302;28;20103;-75
2021/08/05 06:42:34;;;;;;;22.17;12.70;;;;;;;;;;5093791;28;20044;-76
2021/08/05 06:45:00;;;;;;;19.38;11.32;;;;;;;;;;5092475;28;20381;-76
2021/08/05 06:47:25;;;;;;;23.83;12.07;;;;;;;;;;5092570;28;20036;-76
2021/08/05 06:49:51;;;;;;;24.45;12.27;;;;;;;;;;5093609;28;20064;-75
2021/08/05 06:52:16;;;;;;;25.85;11.80;;;;;;;;;;5093790;28;20115;-76
2021/08/05 06:54:41;;;;;;;25.70;12.48;;;;;;;;;;5093618;28;20031;-76
2021/08/05 06:57:07;;;;;;;18.58;11.50;;;;;;;;;;5094086;28;20024;-75
2021/08/05 06:59:32;;;;;;;20.92;11.60;;;;;;;;;;5093799;28;20020;-75
2021/08/05 07:01:57;;;;;;;20.90;11.20;;;;;;;;;;5093391;28;20028;-76
2021/08/05 07:04:22;;;;;;;17.17;9.57;;;;;;;;;;5093445;28;20473;-76
2021/08/05 07:06:48;;;;;;;19.60;10.00;;;;;;;;;;5093954;28;20074;-75
2021/08/05 07:09:13;;;;;;;18.67;11.18;;;;;;;;;;5093832;28;20040;-76
2021/08/05 07:11:38;;;;;;;20.00;10.45;;;;;;;;;;5093463;28;20016;-76
2021/08/05 07:14:05;;;;;;;14.85;9.35;;;;;;;;;;5093590;28;20028;-75
2021/08/05 07:16:30;;;;;;;12.38;9.27;;;;;;;;;;5093492;28;20036;-76
2021/08/05 07:18:55;;;;;;;17.02;8.82;;;;;;;;;;5094587;28;20024;-76
2021/08/05 07:21:21;;;;;;;17.00;8.32;;;;;;;;;;5097239;28;20055;-76
2021/08/05 07:23:46;;;;;;;14.27;8.00;;;;;;;;;;5096436;28;20415;-76
2021/08/05 07:26:11;;;;;;;18.00;9.70;;;;;;;;;;5097508;28;20475;-75
2021/08/05 07:28:37;;;;;;;12.52;7.63;;;;;;;;;;5097254;28;20032;-75
2021/08/05 07:31:02;;;;;;;16.70;7.68;;;;;;;;;;5097511;28;20028;-76
2021/08/05 07:33:27;;;;;;;16.08;8.30;;;;;;;;;;5097527;28;20479;-75
2021/08/05 07:35:53;;;;;;;12.40;7.03;;;;;;;;;;5097204;28;20039;-75
2021/08/05 07:38:18;;;;;;;14.10;7.07;;;;;;;;;;5095734;28;20028;-74
2021/08/05 07:40:44;;;;;;;12.88;6.65;;;;;;;;;;5096229;28;20540;-74
2021/08/05 07:43:09;;;;;;;12.20;6.25;;;;;;;;;;5096799;28;20039;-74
2021/08/05 07:45:35;;;;;;;10.80;7.20;;;;;;;;;;5096497;28;20032;-75
2021/08/05 07:48:00;;;;;;;11.80;6.47;;;;;;;;;;5094637;28;20024;-76
2021/08/05 07:50:26;;;;;;;9.52;5.85;;;;;;;;;;5077045;28;20025;-75
2021/08/05 07:52:51;;;;;;;14.18;6.50;;;;;;;;;;5076645;28;20036;-75
2021/08/05 07:55:16;;;;;;;11.70;6.35;;;;;;;;;;5076390;28;20050;-75
2021/08/05 07:57:42;;;;;;;12.70;6.63;;;;;;;;;;5076747;28;20373;-75
2021/08/05 08:00:08;;;;;;;11.93;7.10;;;;;;;;;;5076763;28;20062;-75
2021/08/05 08:02:33;;;;;;;12.85;7.00;;;;;;;;;;5076314;28;20023;-75
2021/08/05 08:04:58;;;;;;;12.48;7.97;;;;;;;;;;5076083;28;20060;-75
2021/08/05 08:07:24;;;;;;;11.10;6.55;;;;;;;;;;5076424;28;20474;-75
2021/08/05 08:09:49;;;;;;;11.65;7.43;;;;;;;;;;5076479;28;20024;-75
2021/08/05 08:12:15;;;;;;;16.05;8.82;;;;;;;;;;5067667;28;20038;-75
2021/08/05 08:14:40;;;;;;;15.25;8.63;;;;;;;;;;5081566;28;20388;-76
2021/08/05 08:17:05;;;;;;;11.02;6.75;;;;;;;;;;5093063;28;20452;-75
2021/08/05 08:19:32;;;;;;;13.68;6.30;;;;;;;;;;5092848;28;20062;-76
2021/08/05 08:21:58;;;;;;;9.05;5.25;;;;;;;;;;5091938;28;20114;-75
2021/08/05 08:24:23;;;;;;;10.25;5.55;;;;;;;;;;5092755;28;20061;-75
2021/08/05 08:26:49;;;;;;;9.73;5.93;;;;;;;;;;5092318;28;20035;-75
2021/08/05 08:29:14;;;;;;;9.65;5.10;;;;;;;;;;5092777;28;20032;-75
2021/08/05 08:31:39;;;;;;;9.10;6.03;;;;;;;;;;5092301;28;20016;-75
2021/08/05 08:34:05;;;;;;;11.20;5.88;;;;;;;;;;5092755;28;20056;-75
2021/08/05 08:36:30;;;;;;;9.25;6.32;;;;;;;;;;5091859;28;20093;-75
2021/08/05 08:38:58;;;;;;;10.27;6.28;;;;;;;;;;5092776;28;20023;-75
2021/08/05 08:41:24;;;;;;;11.65;5.68;;;;;;;;;;5092107;28;20243;-75
2021/08/05 08:43:49;;;;;;;12.38;6.15;;;;;;;;;;5092427;28;20040;-76
2021/08/05 08:46:24;;;;;;;11.48;4.63;;;;;;;;;;5091991;28;20449;-75
2021/08/05 08:48:51;;;;;;;7.93;5.63;;;;;;;;;;5093457;28;20050;-75
2021/08/05 08:51:18;;;;;;;8.52;4.95;;;;;;;;;;5091785;28;20566;-75
2021/08/05 08:53:43;;;;;;;9.55;5.30;;;;;;;;;;5093232;28;20078;-75
2021/08/05 08:56:08;;;;;;;11.55;4.18;;;;;;;;;;5086214;28;20482;-75
2021/08/05 08:58:34;;;;;;;6.47;4.15;;;;;;;;;;5072033;28;20534;-75
2021/08/05 09:00:59;;;;;;;7.97;5.13;;;;;;;;;;5072480;28;20024;-75
2021/08/05 09:03:25;;;;;;;13.75;5.80;;;;;;;;;;5072706;28;20029;-74
2021/08/05 09:05:50;;;;;;;8.93;4.75;;;;;;;;;;5071847;28;20041;-74
2021/08/05 09:08:16;;;;;;;9.55;5.88;;;;;;;;;;5071994;28;20469;-75
2021/08/05 09:10:41;;;;;;;12.27;5.82;;;;;;;;;;5071165;28;20024;-75
2021/08/05 09:13:07;;;;;;;11.75;5.50;;;;;;;;;;5078857;28;20484;-75
2021/08/05 09:15:39;;;;;;;8.55;4.60;;;;;;;;;;5091886;28;20460;-77
2021/08/05 09:18:24;;;;;;;8.00;4.32;;;;;;;;;;5092177;28;20020;-74
2021/08/05 09:21:10;;;;;;;8.98;4.88;;;;;;;;;;5090854;28;20083;-75
2021/08/05 09:23:50;;;;;;;7.40;4.75;;;;;;;;;;5091379;28;20081;-75
2021/08/05 09:26:26;;;;;;;6.95;3.40;;;;;;;;;;5091581;28;20139;-75
2021/08/05 09:29:07;;;;;;;6.20;3.42;;;;;;;;;;5091898;28;20118;-75
2021/08/05 09:31:33;;;;;;;6.03;3.63;;;;;;;;;;5091296;28;20024;-75
2021/08/05 09:34:08;;;;;;;8.82;3.40;;;;;;;;;;5091703;28;20024;-74
2021/08/05 09:36:34;;;;;;;5.35;3.05;;;;;;;;;;5091248;28;20032;-75
2021/08/05 09:39:00;;;;;;;10.32;4.32;;;;;;;;;;5091407;28;20440;-75
2021/08/05 09:41:25;;;;;;;7.97;3.40;;;;;;;;;;5090411;28;20115;-75
2021/08/05 09:43:59;;;;;;;5.40;2.88;;;;;;;;;;5091845;28;20024;-76
2021/08/05 09:46:31;;;;;;;5.03;2.95;;;;;;;;;;5091063;28;20032;-75
2021/08/05 09:48:57;;;;;;;5.57;2.92;;;;;;;;;;5091867;28;20105;-74
2021/08/05 09:51:22;;;;;;;5.30;2.75;;;;;;;;;;5089467;28;20020;-77
2021/08/05 09:53:56;;;;;;;9.57;3.50;;;;;;;;;;5090611;28;20024;-75
2021/08/05 09:56:22;;;;;;;7.78;3.35;;;;;;;;;;5085250;28;20123;-74
2021/08/05 09:58:48;;;;;;;8.98;3.10;;;;;;;;;;5088016;28;20110;-74
2021/08/05 10:01:13;;;;;;;5.38;3.40;;;;;;;;;;5090366;28;20047;-75
2021/08/05 10:03:39;;;;;;;7.10;3.75;;;;;;;;;;5090472;28;20502;-74
2021/08/05 10:06:07;;;;;;;7.30;4.10;;;;;;;;;;5089533;28;20040;-75
2021/08/05 10:08:35;;;;;;;9.65;3.97;;;;;;;;;;5090910;28;20510;-75
2021/08/05 10:11:01;;;;;;;8.05;3.47;;;;;;;;;;5091000;28;20376;-74
2021/08/05 10:13:31;;;;;;;11.48;4.55;;;;;;;;;;5090271;28;20024;-75
2021/08/05 10:15:57;;;;;;;7.47;4.60;;;;;;;;;;5090275;28;20040;-75
2021/08/05 10:18:27;;;;;;;8.00;4.40;;;;;;;;;;5090133;28;20532;-75
2021/08/05 10:20:52;;;;;;;9.13;5.63;;;;;;;;;;5090260;28;20480;-74
2021/08/05 10:23:18;;;;;;;13.30;4.93;;;;;;;;;;5089874;28;20032;-74
2021/08/05 10:25:44;;;;;;;9.07;4.88;;;;;;;;;;5090214;28;20043;-75
2021/08/05 10:28:09;;;;;;;11.80;5.28;;;;;;;;;;5090505;28;20039;-74
2021/08/05 10:30:35;;;;;;;13.55;6.90;;;;;;;;;;5089262;28;20112;-74
2021/08/05 10:33:00;;;;;;;15.15;5.97;;;;;;;;;;5089876;28;20036;-75
2021/08/05 10:35:26;;;;;;;14.18;7.38;;;;;;;;;;5090117;28;20030;-75
2021/08/05 10:37:51;;;;;;;12.95;6.22;;;;;;;;;;5090494;28;20064;-76
2021/08/05 10:40:17;;;;;;;14.43;7.55;;;;;;;;;;5089553;28;20055;-75
2021/08/05 10:42:43;;;;;;;10.13;6.30;;;;;;;;;;5088841;28;20364;-74
2021/08/05 10:45:09;;;;;;;11.95;6.07;;;;;;;;;;5089218;28;20062;-74
2021/08/05 10:47:35;;;;;;;12.40;7.55;;;;;;;;;;5089027;28;20028;-74
2021/08/05 10:50:01;;;;;;;11.80;6.63;;;;;;;;;;5088739;28;20018;-74
2021/08/05 10:52:47;;;;;;;8.20;5.60;;;;;;;;;;5089233;28;20073;-75
2021/08/05 10:55:12;;;;;;;;;;;;;;;;;;5090261;28;20078;-74
2021/08/05 10:57:38;;;;;;;9.15;5.20;;;;;;;;;;5089431;28;19908;-74
2021/08/05 11:00:03;;;;;;;8.90;5.68;;;;;;;;;;5089675;28;20032;-73
2021/08/05 11:02:47;;;;;;;11.15;5.82;;;;;;;;;;5089674;28;20077;-74
2021/08/05 11:05:32;;;;;;;11.10;6.55;;;;;;;;;;5089334;28;20024;-75
2021/08/05 11:08:07;;;;;;;12.55;6.90;;;;;;;;;;5089494;28;20503;-75
2021/08/05 11:10:33;;;;;;;10.45;6.57;;;;;;;;;;5089739;28;20024;-75
2021/08/05 11:13:07;;;;;;;10.68;6.70;;;;;;;;;;5090301;28;20039;-75
2021/08/05 11:15:33;;;;;;;9.20;5.70;;;;;;;;;;5089677;28;20062;-75
2021/08/05 11:18:11;;;;;;;8.63;4.70;;;;;;;;;;5089644;28;20031;-75
2021/08/05 11:20:42;;;;;;;8.20;4.55;;;;;;;;;;5089637;28;20075;-74
2021/08/05 11:23:29;;;;;;;9.43;4.85;;;;;;;;;;5089863;28;20109;-74
2021/08/05 11:25:57;;;;;;;6.75;4.00;;;;;;;;;;5088983;28;20028;-75
2021/08/05 11:28:26;;;;;;;6.32;4.30;;;;;;;;;;5089760;28;20415;-74
2021/08/05 11:30:51;;;;;;;6.53;4.43;;;;;;;;;;5089881;28;20020;-74
2021/08/05 11:33:52;;;;;;;6.13;3.95;;;;;;;;;;5086440;28;20026;-74
2021/08/05 11:36:25;;;;;;;6.60;4.07;;;;;;;;;;5026058;28;20041;-78
2021/08/05 11:39:03;;;;;;;9.63;3.45;;;;;;;;;;5073212;28;20032;-75
2021/08/05 11:41:48;;;;;;;6.18;3.90;;;;;;;;;;5086458;28;20028;-75
2021/08/05 11:44:31;;;;;;;5.78;3.65;;;;;;;;;;5081702;28;20017;-75
2021/08/05 11:47:03;;;;;;;6.80;4.38;;;;;;;;;;5078125;28;20036;-76
2021/08/05 11:49:31;;;;;;;10.30;4.07;;;;;;;;;;5087973;28;20103;-75
2021/08/05 11:51:57;;;;;;;5.32;3.90;;;;;;;;;;5088519;28;20063;-75
2021/08/05 11:54:22;;;;;;;5.55;4.10;;;;;;;;;;5089388;28;20031;-73
2021/08/05 11:56:57;;;;;;;7.70;4.18;;;;;;;;;;5087105;28;20024;-75
2021/08/05 11:59:43;;;;;;;6.43;3.97;;;;;;;;;;5089279;28;20372;-74
2021/08/05 12:02:10;;;;;;;8.07;4.50;;;;;;;;;;5088709;28;20032;-74
2021/08/05 12:04:35;;;;;;;5.85;4.40;;;;;;;;;;5090063;28;20036;-74
2021/08/05 12:07:20;;;;;;;10.52;4.75;;;;;;;;;;5092723;28;20071;-78
2021/08/05 12:09:53;;;;;;;8.17;5.20;;;;;;;;;;5093112;28;20034;-74
2021/08/05 12:12:18;;;;;;;9.13;5.53;;;;;;;;;;5092635;28;20027;-75
2021/08/05 12:14:50;;;;;;;8.73;6.07;;;;;;;;;;5092672;28;20030;-74
2021/08/05 12:17:15;;;;;;;10.57;6.63;;;;;;;;;;5091182;28;20458;-75
2021/08/05 12:19:49;;;;;;;13.68;6.80;;;;;;;;;;5092875;28;20115;-74
2021/08/05 12:22:15;;;;;;;8.27;5.17;;;;;;;;;;5092982;28;20048;-74
2021/08/05 12:24:47;;;;;;;10.52;5.43;;;;;;;;;;5092341;28;20201;-74
2021/08/05 12:27:18;;;;;;;9.43;5.53;;;;;;;;;;5092791;28;20038;-74
2021/08/05 12:30:06;;;;;;;10.07;5.03;;;;;;;;;;5092977;28;20110;-74
2021/08/05 12:32:32;;;;;;;10.02;4.60;;;;;;;;;;5092481;28;20035;-75
2021/08/05 12:34:57;;;;;;;15.63;4.90;;;;;;;;;;5092228;28;20032;-74
2021/08/05 12:37:22;;;;;;;12.35;5.15;;;;;;;;;;5092045;28;20035;-74
2021/08/05 12:39:48;;;;;;;10.43;3.47;;;;;;;;;;5092483;28;20016;-74
2021/08/05 12:42:14;;;;;;;10.50;4.70;;;;;;;;;;5092807;28;20074;-74
2021/08/05 12:44:40;;;;;;;7.50;4.10;;;;;;;;;;5092366;28;20044;-74
2021/08/05 12:47:06;;;;;;;9.80;4.15;;;;;;;;;;5102973;28;20031;-74
2021/08/05 12:49:33;;;;;;;8.55;4.40;;;;;;;;;;5112557;28;20031;-75
2021/08/05 12:51:59;;;;;;;6.95;4.10;;;;;;;;;;5112868;28;20031;-75
2021/08/05 12:54:25;;;;;;;7.68;4.38;;;;;;;;;;5112402;28;20061;-74
2021/08/05 12:56:55;;;;;;;9.18;3.92;;;;;;;;;;5109762;28;20533;-76
2021/08/05 12:59:25;;;;;;;7.43;3.92;;;;;;;;;;5112721;28;20031;-74
2021/08/05 13:02:03;;;;;;;8.57;4.15;;;;;;;;;;5112512;28;20015;-75
2021/08/05 13:04:29;;;;;;;6.88;3.92;;;;;;;;;;5111518;28;20032;-74
2021/08/05 13:06:57;;;;;;;10.35;4.00;;;;;;;;;;5111132;28;20438;-75
2021/08/05 13:09:23;;;;;;;8.75;4.18;;;;;;;;;;5112818;28;20119;-74
2021/08/05 13:11:49;;;;;;;7.15;3.58;;;;;;;;;;5091544;28;20051;-74
2021/08/05 13:14:27;;;;;;;8.13;3.47;;;;;;;;;;5088325;28;20063;-73
2021/08/05 13:17:01;;;;;;;9.30;2.70;;;;;;;;;;5089166;28;20039;-74
2021/08/05 13:19:27;;;;;;;4.43;2.50;;;;;;;;;;5090910;28;20028;-74
2021/08/05 13:21:53;;;;;;;3.75;2.47;;;;;;;;;;5088563;28;20059;-74
2021/08/05 13:24:23;;;;;;;3.58;2.38;;;;;;;;;;5090566;28;20511;-74
2021/08/05 13:26:50;;;;;;;6.22;2.42;;;;;;;;;;5090213;28;20127;-74
2021/08/05 13:29:46;;;;;;;6.13;2.40;;;;;;;;;;5091100;28;20032;-74
2021/08/05 13:32:21;;;;;;;3.70;2.35;;;;;;;;;;5082187;28;20069;-74
2021/08/05 13:35:00;;;;;;;6.43;2.38;;;;;;;;;;5091257;28;20038;-77
2021/08/05 13:37:26;;;;;;;4.22;2.10;;;;;;;;;;5070271;28;20035;-74
2021/08/05 13:39:56;;;;;;;4.72;2.00;;;;;;;;;;5070604;28;20029;-77
2021/08/05 13:42:21;;;;;;;4.07;2.00;;;;;;;;;;5070238;28;21396;-74
2021/08/05 13:44:47;;;;;;;3.50;1.92;;;;;;;;;;5070355;28;20043;-76
2021/08/05 13:47:13;;;;;;;3.90;1.88;;;;;;;;;;5071171;28;20082;-74
2021/08/05 13:49:39;;;;;;;2.92;1.83;;;;;;;;;;5070724;28;20017;-73
2021/08/05 13:52:05;;;;;;;3.90;1.85;;;;;;;;;;5070852;28;20158;-74
2021/08/05 13:54:30;;;;;;;2.88;1.50;;;;;;;;;;5070603;28;20032;-73
2021/08/05 13:56:56;;;;;;;3.35;1.90;;;;;;;;;;5069660;28;20042;-74
2021/08/05 13:59:21;;;;;;;6.13;2.40;;;;;;;;;;5070419;28;20109;-77
2021/08/05 14:01:46;;;;;;;5.32;1.80;;;;;;;;;;5070952;28;20142;-74
2021/08/05 14:04:12;;;;;;;4.00;2.25;;;;;;;;;;5070305;28;20477;-76
2021/08/05 14:06:37;;;;;;;4.60;2.53;;;;;;;;;;5069333;28;20052;-77
2021/08/05 14:09:02;;;;;;;3.72;2.28;;;;;;;;;;5069721;28;20032;-74
2021/08/05 14:11:28;;;;;;;3.97;2.05;;;;;;;;;;5069929;28;20477;-74
2021/08/05 14:13:53;;;;;;;8.43;2.40;;;;;;;;;;5070379;28;20077;-74
2021/08/05 14:16:18;;;;;;;2.58;1.65;;;;;;;;;;5069668;28;20040;-74
2021/08/05 14:18:43;;;;;;;2.72;1.75;;;;;;;;;;5069255;28;20465;-75
2021/08/05 14:21:09;;;;;;;5.63;1.73;;;;;;;;;;5069714;28;20048;-74
2021/08/05 14:23:34;;;;;;;5.57;3.13;;;;;;;;;;5070018;28;20024;-74
2021/08/05 14:25:59;;;;;;;2.80;2.05;;;;;;;;;;5069606;28;20116;-74